Time;durP1;ratioP1;P1;durP2;ratioP2;P2;SDS_P1;SDS_P2;PMS_P1;PMS_P2;Temp;Humidity;BMP_temperature;BMP_pressure;BME280_temperature;BME280_humidity;BME280_pressure;Samples;Min_cycle;Max_cycle;Signal;HPM_P1;HPM_P2
2021/12/08 00:04:48;;;;;;;48.80;20.50;;;;;;;-2.22;92.54;100315.89;3513288;81;99403;-81
2021/12/08 00:10:01;;;;;;;52.00;22.67;;;;;;;-2.25;92.38;100311.08;3514523;81;99179;-81
2021/12/08 00:14:52;;;;;;;49.50;21.53;;;;;;;-2.30;92.61;100318.47;3508594;81;99275;-81
2021/12/08 00:19:53;;;;;;;51.53;23.07;;;;;;;-2.29;92.65;100317.36;3518171;82;99266;-80
2021/12/08 00:24:54;;;;;;;44.93;20.47;;;;;;;-2.30;92.55;100317.90;3505875;82;99336;-81
2021/12/08 00:29:55;;;;;;;48.47;21.10;;;;;;;-2.31;92.79;100323.05;3502056;82;99354;-81
2021/12/08 00:34:56;;;;;;;50.73;22.67;;;;;;;-2.29;92.68;100310.63;3519962;82;99102;-80
2021/12/08 00:39:56;;;;;;;51.03;22.90;;;;;;;-2.29;92.74;100306.02;3518915;82;98926;-80
2021/12/08 00:44:59;;;;;;;55.33;23.83;;;;;;;-2.26;92.76;100301.40;3492734;82;99027;-82
2021/12/08 00:50:00;;;;;;;52.57;23.13;;;;;;;-2.29;92.72;100277.72;3505088;82;99938;-81
2021/12/08 00:55:03;;;;;;;53.97;21.20;;;;;;;-2.29;93.01;100297.94;3520261;82;99202;-80
2021/12/08 01:00:12;;;;;;;50.73;22.83;;;;;;;-2.29;92.84;100318.15;3504902;82;99282;-82
2021/12/08 01:05:17;;;;;;;42.80;20.80;;;;;;;-2.30;92.93;100327.33;3510909;81;99169;-81
2021/12/08 01:10:24;;;;;;;52.47;22.77;;;;;;;-2.22;93.08;100333.41;3517156;82;69202;-82
2021/12/08 01:15:27;;;;;;;52.23;21.57;;;;;;;-2.23;92.95;100338.56;3496273;82;99417;-81
2021/12/08 01:20:28;;;;;;;48.87;21.30;;;;;;;-2.21;92.91;100343.09;3514282;82;99015;-81
2021/12/08 01:25:29;;;;;;;57.08;24.60;;;;;;;-2.22;92.79;100316.42;3496234;82;115623;-81
2021/12/08 01:30:31;;;;;;;50.90;21.30;;;;;;;-2.20;92.93;100335.25;3515030;81;99345;-81
2021/12/08 01:35:32;;;;;;;53.07;24.13;;;;;;;-2.18;92.88;100334.97;3521764;82;99411;-81
2021/12/08 01:40:33;;;;;;;54.37;22.20;;;;;;;-2.13;93.14;100345.66;3506173;82;26265;-81
2021/12/08 01:50:59;;;;;;;53.17;22.20;;;;;;;-2.07;92.95;100318.30;3493969;82;99056;-80
2021/12/08 01:56:00;;;;;;;55.80;23.00;;;;;;;-2.06;93.05;100317.23;3500364;82;99245;-81
2021/12/08 02:01:08;;;;;;;53.77;24.23;;;;;;;-2.07;92.97;100309.43;3510380;82;99197;-81
2021/12/08 02:06:12;;;;;;;55.83;22.20;;;;;;;-2.06;93.06;100292.16;3520335;82;99703;-80
2021/12/08 02:11:14;;;;;;;58.80;26.73;;;;;;;-2.05;93.17;100284.31;3495297;82;99122;-80
2021/12/08 02:16:16;;;;;;;58.50;25.82;;;;;;;-2.04;93.01;100271.89;3508396;82;99188;-81
2021/12/08 02:21:34;;;;;;;59.80;25.67;;;;;;;-2.04;93.14;100269.19;3522447;82;99088;-81
2021/12/08 02:26:38;;;;;;;61.93;26.23;;;;;;;-2.04;93.23;100258.41;3499002;81;99051;-81
2021/12/08 02:52:32;;;;;;;64.37;28.27;;;;;;;-1.96;93.32;100232.12;3503930;81;98913;-81
2021/12/08 02:57:33;;;;;;;63.33;28.30;;;;;;;-1.98;93.26;100227.55;3507856;82;99131;-80
2021/12/08 03:02:34;;;;;;;64.40;27.97;;;;;;;-2.00;93.30;100220.86;3505060;82;99306;-81
2021/12/08 03:07:35;;;;;;;71.07;29.73;;;;;;;-2.02;93.38;100215.76;3520235;82;99183;-80
2021/12/08 03:12:36;;;;;;;63.83;28.92;;;;;;;-2.01;93.46;100203.90;3520659;82;99562;-81
2021/12/08 03:17:38;;;;;;;62.33;28.60;;;;;;;-1.99;93.45;100191.44;3517776;82;99577;-81
2021/12/08 03:22:44;;;;;;;62.57;26.97;;;;;;;-2.02;93.41;100188.80;3507482;82;98849;-80
2021/12/08 03:27:54;;;;;;;64.07;28.43;;;;;;;-2.03;93.36;100185.08;3518681;82;98971;-80
2021/12/08 03:32:47;;;;;;;62.50;26.97;;;;;;;-2.05;93.63;100175.94;3510776;82;99185;-81
2021/12/08 03:37:48;;;;;;;66.27;29.40;;;;;;;-2.01;93.62;100163.99;3506115;82;98508;-80
2021/12/08 03:42:52;;;;;;;65.80;27.07;;;;;;;-2.03;93.68;100156.20;3507468;82;99271;-81
2021/12/08 03:48:01;;;;;;;61.42;25.55;;;;;;;-2.08;93.64;100138.78;3510208;82;99648;-81
2021/12/08 03:52:59;;;;;;;62.93;28.47;;;;;;;-2.21;93.95;100097.81;3509020;82;99236;-82
2021/12/08 03:58:00;;;;;;;65.47;28.57;;;;;;;-2.21;93.95;100097.81;3507959;82;98907;-81
2021/12/08 04:03:04;;;;;;;65.22;28.90;;;;;;;-2.08;93.88;100115.08;3489118;82;99068;-81
2021/12/08 04:08:14;;;;;;;54.97;24.57;;;;;;;-2.08;93.99;100114.52;3508622;82;99151;-81
2021/12/08 04:13:08;;;;;;;52.27;24.65;;;;;;;-2.07;93.82;100107.23;3494214;82;99408;-82
2021/12/08 04:18:09;;;;;;;63.93;25.80;;;;;;;-2.12;93.93;100094.67;3497636;82;99218;-81
2021/12/08 04:23:14;;;;;;;47.57;22.20;;;;;;;-2.16;94.04;100100.41;3498930;82;99287;-81
2021/12/08 04:28:20;;;;;;;59.17;27.33;;;;;;;-2.15;93.99;100103.34;3522756;82;28706;-81
2021/12/08 04:33:22;;;;;;;55.67;28.17;;;;;;;-2.14;94.00;100096.85;3491862;81;99365;-81
2021/12/08 04:38:31;;;;;;;47.77;22.73;;;;;;;-2.17;93.88;100101.52;3525556;82;99617;-81
2021/12/08 04:43:47;;;;;;;45.43;21.07;;;;;;;-2.17;93.76;100100.70;3500470;82;99484;-81
2021/12/08 05:04:59;;;;;;;43.63;18.40;;;;;;;-2.29;93.50;100109.28;3512074;82;99366;-81
2021/12/08 05:09:48;;;;;;;30.60;13.80;;;;;;;-2.36;93.51;100106.77;3501121;82;99011;-83
2021/12/08 05:15:00;;;;;;;43.27;19.80;;;;;;;-2.42;93.10;100097.97;3506919;82;99216;-80
2021/12/08 05:20:07;;;;;;;40.33;19.87;;;;;;;-2.47;93.25;100093.25;3500156;82;99160;-81
2021/12/08 05:25:12;;;;;;;35.90;16.95;;;;;;;-2.53;92.89;100089.02;3517290;82;99317;-81
2021/12/08 05:30:19;;;;;;;32.97;16.17;;;;;;;-2.62;92.62;100087.58;3504447;82;99262;-81
2021/12/08 05:35:22;;;;;;;;;;;;;;;-2.62;92.79;100096.22;3486624;82;99169;-81
2021/12/08 05:40:28;;;;;;;33.87;16.47;;;;;;;-2.63;92.85;100094.63;3511274;81;37615;-80
2021/12/08 05:45:29;;;;;;;;;;;;;;;-2.65;92.94;100092.77;3504837;82;99435;-80
2021/12/08 05:50:38;;;;;;;38.10;17.37;;;;;;;-2.69;92.91;100078.32;3513504;82;85349;-79
2021/12/08 05:55:42;;;;;;;38.78;18.02;;;;;;;-2.70;93.10;100082.89;3504111;82;99164;-80
2021/12/08 06:01:04;;;;;;;39.60;18.32;;;;;;;-2.66;93.23;100087.13;3516476;81;99141;-80
2021/12/08 06:06:06;;;;;;;33.02;15.23;;;;;;;-2.70;93.07;100082.89;3519388;82;99344;-81
2021/12/08 06:11:10;;;;;;;39.23;19.75;;;;;;;-2.68;93.12;100075.30;3513292;82;99500;-81
2021/12/08 06:16:13;;;;;;;39.35;18.23;;;;;;;-2.73;93.35;100081.35;3503775;82;99204;-81
2021/12/08 06:21:18;;;;;;;40.70;19.27;;;;;;;-2.70;93.41;100075.35;3518311;82;98972;-80
2021/12/08 06:26:22;;;;;;;42.23;19.45;;;;;;;-2.73;93.46;100074.05;3504577;82;99245;-80
2021/12/08 06:31:26;;;;;;;34.30;16.10;;;;;;;-2.74;93.42;100086.49;3490305;82;99211;-80
2021/12/08 06:36:32;;;;;;;42.93;19.50;;;;;;;-2.74;93.81;100089.97;3490955;82;99189;-80
2021/12/08 06:41:38;;;;;;;44.95;19.23;;;;;;;-2.72;93.63;100089.67;3512622;82;99155;-80
2021/12/08 06:46:41;;;;;;;41.25;18.82;;;;;;;-2.70;93.83;100077.52;3497463;82;27609;-81
2021/12/08 06:51:47;;;;;;;40.67;18.42;;;;;;;-2.71;93.65;100077.80;3477759;82;104774;-81
2021/12/08 06:56:54;;;;;;;;;;;;;;;-2.76;93.85;100092.17;3516781;82;99155;-80
2021/12/08 07:02:04;;;;;;;40.47;18.67;;;;;;;-2.75;94.02;100095.11;3508055;82;85248;-82
2021/12/08 07:07:11;;;;;;;35.63;16.57;;;;;;;-2.76;93.89;100094.86;3522868;81;99238;-79
2021/12/08 07:12:19;;;;;;;39.90;17.40;;;;;;;-2.77;94.02;100103.23;3509580;82;99292;-81
2021/12/08 07:17:26;;;;;;;36.93;17.63;;;;;;;-2.81;94.12;100111.64;3503856;82;99046;-80
2021/12/08 07:22:29;;;;;;;38.48;18.10;;;;;;;-2.78;94.17;100123.19;3508653;82;99042;-79
2021/12/08 07:27:34;;;;;;;36.30;16.93;;;;;;;-2.81;93.99;100108.95;3514285;82;98979;-80
2021/12/08 07:32:40;;;;;;;40.05;17.15;;;;;;;-2.83;94.23;100124.62;3512404;82;99284;-80
2021/12/08 07:37:41;;;;;;;35.93;15.73;;;;;;;-2.83;94.14;100128.66;3520879;81;99274;-79
2021/12/08 07:42:50;;;;;;;37.43;18.10;;;;;;;-2.81;94.28;100114.34;3518676;82;139943;-80
2021/12/08 07:47:54;;;;;;;36.20;17.37;;;;;;;-2.80;94.19;100120.00;3512381;82;99427;-80
2021/12/08 07:52:57;;;;;;;38.35;18.62;;;;;;;-2.80;94.16;100112.70;3511542;82;99394;-80
2021/12/08 07:58:00;;;;;;;40.03;18.12;;;;;;;-2.83;94.19;100113.84;3529172;82;98928;-80
2021/12/08 08:03:04;;;;;;;40.60;17.42;;;;;;;-2.85;94.40;100120.86;3505224;82;99263;-80
2021/12/08 08:08:10;;;;;;;46.43;20.43;;;;;;;-2.84;94.36;100118.98;3515676;82;99222;-81
2021/12/08 08:13:14;;;;;;;38.60;18.92;;;;;;;-2.88;94.45;100108.02;3498256;82;99630;-80
2021/12/08 08:18:22;;;;;;;41.27;20.27;;;;;;;-2.86;94.74;100108.50;3510422;82;109463;-87
2021/12/08 08:23:25;;;;;;;45.15;19.90;;;;;;;-2.82;94.86;100118.13;3510909;82;99351;-89
2021/12/08 08:28:26;;;;;;;42.83;21.13;;;;;;;-2.78;94.76;100120.48;3522658;82;42515;-89
2021/12/08 08:33:28;;;;;;;45.73;22.27;;;;;;;-2.77;94.88;100122.08;3502548;82;99549;-88
2021/12/08 08:38:35;;;;;;;44.23;19.27;;;;;;;-2.73;94.95;100109.06;3440882;84;99067;-89
2021/12/08 08:43:36;;;;;;;47.53;21.15;;;;;;;-2.71;95.23;100116.31;3397336;84;99306;-87
2021/12/08 08:48:48;;;;;;;54.83;24.07;;;;;;;-2.64;95.07;100115.37;3426775;84;152352;-89
2021/12/08 08:53:53;;;;;;;44.17;22.80;;;;;;;-2.64;95.01;100117.25;3408971;84;99774;-87
2021/12/08 08:58:59;;;;;;;49.53;22.70;;;;;;;-2.59;95.04;100112.58;3409723;84;45398;-88
2021/12/08 09:04:07;;;;;;;;;;;;;;;-2.53;95.10;100117.31;3415208;83;99547;-87
2021/12/08 09:09:24;;;;;;;53.73;22.77;;;;;;;-2.49;95.34;100117.78;3415917;84;85008;-88
2021/12/08 09:14:43;;;;;;;44.85;21.12;;;;;;;-2.43;95.07;100119.28;3411878;84;99559;-86
2021/12/08 09:19:49;;;;;;;45.33;20.70;;;;;;;-2.40;95.11;100114.63;3396476;84;99246;-89
2021/12/08 09:25:02;;;;;;;43.80;19.50;;;;;;;-2.35;94.99;100116.44;3393573;84;99522;-89
2021/12/08 09:30:14;;;;;;;46.97;20.97;;;;;;;-2.34;94.97;100106.72;3413013;83;99252;-87
2021/12/08 09:35:23;;;;;;;42.37;20.07;;;;;;;-2.28;94.99;100097.43;3416091;84;104455;-87
2021/12/08 09:40:44;;;;;;;43.00;20.40;;;;;;;-2.27;94.88;100092.82;3416940;84;28750;-86
2021/12/08 09:46:03;;;;;;;43.55;20.57;;;;;;;-2.22;94.98;100084.09;3403340;84;99235;-86
2021/12/08 09:51:04;;;;;;;46.77;20.37;;;;;;;-2.19;94.74;100072.70;3404448;84;99438;-86
2021/12/08 09:56:05;;;;;;;40.43;19.63;;;;;;;-2.14;94.65;100076.64;3394693;84;99265;-85
2021/12/08 10:01:12;;;;;;;33.80;15.60;;;;;;;-2.11;94.62;100063.91;3490291;82;99171;-86
2021/12/08 10:06:13;;;;;;;41.30;20.88;;;;;;;-2.06;94.46;100057.61;3493903;81;99395;-86
2021/12/08 10:11:16;;;;;;;41.57;20.50;;;;;;;-2.08;94.33;100040.95;3496085;82;99215;-86
2021/12/08 10:16:18;;;;;;;42.20;20.23;;;;;;;-2.08;94.06;100028.81;3482962;82;99101;-86
2021/12/08 10:21:20;;;;;;;49.53;22.00;;;;;;;-2.02;94.15;100020.86;3459428;82;99004;-86
2021/12/08 10:26:26;;;;;;;48.33;22.67;;;;;;;-1.98;94.25;100023.20;3488052;82;99316;-87
2021/12/08 10:31:32;;;;;;;47.37;22.33;;;;;;;-1.96;94.10;100030.42;3506415;82;99217;-81
2021/12/08 10:36:45;;;;;;;45.38;21.27;;;;;;;-1.95;93.93;100017.19;3497333;82;99165;-82
2021/12/08 10:42:00;;;;;;;46.57;22.03;;;;;;;-1.94;93.81;100003.95;3507058;82;99213;-82
2021/12/08 10:47:03;;;;;;;46.02;22.15;;;;;;;-1.99;93.70;99997.31;3516846;81;79676;-80
2021/12/08 10:57:37;;;;;;;54.83;31.23;;;;;;;-2.06;93.50;99965.41;3482225;81;98868;-81
2021/12/08 11:02:53;;;;;;;48.87;23.50;;;;;;;-1.90;93.33;99966.64;3521465;81;99131;-81
2021/12/08 11:08:14;;;;;;;50.00;23.83;;;;;;;-2.03;93.34;99966.70;3502900;81;99439;-81
2021/12/08 11:13:20;;;;;;;40.43;18.63;;;;;;;-2.10;93.00;99967.65;3484424;82;99580;-82
2021/12/08 11:18:24;;;;;;;44.25;20.70;;;;;;;-2.19;93.08;99968.15;3519101;82;98998;-80
2021/12/08 11:23:46;;;;;;;52.60;24.10;;;;;;;-2.29;93.05;99971.84;3511457;82;99460;-80
2021/12/08 11:29:02;;;;;;;50.63;22.40;;;;;;;-2.31;93.15;99961.93;3452036;83;75264;-81
2021/12/08 11:34:10;;;;;;;50.03;23.00;;;;;;;-2.39;92.79;99969.94;3455969;83;99292;-79
2021/12/08 11:39:17;;;;;;;55.10;26.87;;;;;;;-2.44;92.88;99984.86;3409745;84;98815;-80
2021/12/08 11:44:27;;;;;;;52.63;24.37;;;;;;;-2.46;93.05;99973.60;3443010;83;99004;-79
2021/12/08 11:49:29;;;;;;;54.13;24.77;;;;;;;-2.45;93.05;99976.54;3392213;84;99138;-79
2021/12/08 11:54:54;;;;;;;60.97;29.57;;;;;;;-2.48;93.11;99981.98;3513644;82;99628;-80
2021/12/08 12:00:14;;;;;;;59.30;26.13;;;;;;;-2.52;93.09;99972.13;3501525;82;98959;-80
2021/12/08 12:05:20;;;;;;;54.43;25.70;;;;;;;-2.58;92.97;99974.67;3532530;81;99600;-80
2021/12/08 12:10:26;;;;;;;53.30;25.92;;;;;;;-2.62;93.14;99973.67;3526042;82;31068;-80
2021/12/08 12:15:27;;;;;;;49.65;21.68;;;;;;;-2.62;93.08;99976.37;3507126;81;98963;-80
2021/12/08 12:20:39;;;;;;;53.20;22.93;;;;;;;-2.66;93.11;99985.60;3520530;82;98799;-80
2021/12/08 12:26:09;;;;;;;56.43;24.50;;;;;;;-2.65;93.22;99985.03;3481350;82;99398;-82
2021/12/08 12:31:26;;;;;;;49.50;20.13;;;;;;;-2.66;93.19;99990.18;3529177;82;99091;-82
2021/12/08 12:36:34;;;;;;;55.40;24.83;;;;;;;-2.70;93.04;99975.71;3510109;82;99090;-82
2021/12/08 12:41:35;;;;;;;58.83;25.07;;;;;;;-2.70;93.19;99991.88;3477022;82;100209;-81
2021/12/08 12:46:36;;;;;;;43.90;20.03;;;;;;;-2.68;93.42;99972.19;3509100;82;98826;-81
2021/12/08 12:51:59;;;;;;;66.47;27.77;;;;;;;-2.70;93.19;99963.59;3518236;81;99160;-82
2021/12/08 12:57:03;;;;;;;59.07;25.07;;;;;;;-2.73;93.39;99948.84;3493579;82;99253;-82
2021/12/08 13:02:09;;;;;;;57.08;24.43;;;;;;;-2.76;93.27;99944.60;3478942;81;99357;-81
2021/12/08 13:07:10;;;;;;;57.17;26.27;;;;;;;-2.78;93.48;99922.01;3518396;80;99306;-80
2021/12/08 13:12:37;;;;;;;60.50;26.27;;;;;;;-2.73;93.83;99931.33;3519464;82;99230;-81
2021/12/08 13:17:48;;;;;;;52.53;22.80;;;;;;;-2.74;93.65;99932.44;3510937;81;99174;-80
2021/12/08 13:22:55;;;;;;;59.23;24.63;;;;;;;-2.70;93.83;99940.70;3496728;82;98933;-78
2021/12/08 13:28:07;;;;;;;;;;;;;;;-2.66;93.67;99933.63;3512453;82;98849;-80
2021/12/08 13:33:29;;;;;;;52.40;22.70;;;;;;;-2.69;93.64;99936.94;3501551;82;84862;-81
2021/12/08 13:38:43;;;;;;;61.30;25.17;;;;;;;-2.69;93.65;99945.02;3511355;82;99328;-80
2021/12/08 13:43:46;;;;;;;57.10;23.90;;;;;;;-2.75;93.89;99936.23;3479722;82;99502;-80
2021/12/08 13:49:17;;;;;;;57.57;25.77;;;;;;;-2.78;93.83;99935.47;3499851;82;99434;-80
2021/12/08 13:54:31;;;;;;;62.75;25.12;;;;;;;-2.79;94.13;99934.45;3460695;81;99215;-80
2021/12/08 13:59:56;;;;;;;54.83;23.27;;;;;;;-2.72;94.35;99944.26;3497383;82;98999;-80
2021/12/08 14:05:15;;;;;;;54.27;21.23;;;;;;;-2.69;94.06;99949.83;3484501;82;98736;-80
2021/12/08 14:10:21;;;;;;;59.00;24.47;;;;;;;-2.67;93.92;99949.54;3507115;82;98728;-81
2021/12/08 14:15:31;;;;;;;53.45;24.20;;;;;;;-2.74;93.79;99941.86;3489072;82;99101;-80
2021/12/08 14:20:35;;;;;;;60.40;24.43;;;;;;;-2.71;94.11;99942.62;3502260;82;99101;-80
2021/12/08 14:25:47;;;;;;;56.07;24.27;;;;;;;-2.71;93.60;99943.97;3493042;82;99112;-81
2021/12/08 14:30:48;;;;;;;62.33;27.27;;;;;;;-2.75;93.68;99936.23;3514344;82;99463;-81
2021/12/08 14:35:57;;;;;;;61.27;23.93;;;;;;;-2.77;93.71;99931.70;3486908;82;99090;-80
2021/12/08 14:40:57;;;;;;;63.27;26.60;;;;;;;-2.75;93.52;99934.08;3507218;82;41752;-80
2021/12/08 14:46:11;;;;;;;65.20;25.43;;;;;;;-2.76;93.46;99941.38;3420440;84;98892;-79
2021/12/08 14:51:13;;;;;;;60.87;25.67;;;;;;;-2.75;93.22;99952.92;3515077;82;98773;-81
2021/12/08 14:56:14;;;;;;;66.23;27.33;;;;;;;-2.72;93.10;99954.49;3495603;82;99016;-80
2021/12/08 15:01:17;;;;;;;64.23;27.43;;;;;;;-2.74;93.04;99952.63;3519712;82;99219;-81
2021/12/08 15:06:22;;;;;;;65.43;28.47;;;;;;;-2.77;93.06;99947.05;3508431;81;99402;-80
2021/12/08 15:11:29;;;;;;;57.93;23.27;;;;;;;-2.77;92.78;99943.02;3497296;82;135666;-80
2021/12/08 15:16:31;;;;;;;53.70;23.47;;;;;;;-2.79;92.60;99951.39;3498913;82;98916;-81
2021/12/08 15:21:40;;;;;;;58.75;25.15;;;;;;;-2.79;92.43;99929.06;3487422;82;2036643;-81
2021/12/08 15:26:36;;;;;;;54.50;23.10;;;;;;;-2.78;92.70;99936.82;3497198;82;99442;-81
2021/12/08 15:31:39;;;;;;;66.00;26.60;;;;;;;-2.74;92.62;99913.58;3512392;81;99012;-81
2021/12/08 15:36:40;;;;;;;56.18;24.40;;;;;;;-2.76;92.36;99920.37;3511622;81;99377;-79
2021/12/08 15:41:45;;;;;;;60.97;25.83;;;;;;;-2.75;92.31;99924.65;3504901;82;99305;-81
2021/12/08 15:46:50;;;;;;;63.33;25.97;;;;;;;-2.76;92.15;99922.52;3472501;81;42433;-81
2021/12/08 15:51:53;;;;;;;55.77;26.67;;;;;;;-2.77;92.30;99915.55;3514182;82;99118;-81
2021/12/08 15:57:03;;;;;;;60.13;25.97;;;;;;;-2.81;92.34;99911.05;3491283;82;98964;-81
2021/12/08 16:02:18;;;;;;;61.80;27.42;;;;;;;-2.78;92.31;99910.45;3507804;81;99147;-81
2021/12/08 16:07:29;;;;;;;51.53;23.10;;;;;;;-2.81;92.18;99915.90;3510852;82;99459;-81
2021/12/08 16:12:35;;;;;;;48.48;20.02;;;;;;;-2.84;92.05;99915.14;3517082;82;99395;-81
2021/12/08 16:17:36;;;;;;;54.58;25.08;;;;;;;-2.85;92.19;99907.39;3522629;82;99174;-82
2021/12/08 16:22:39;;;;;;;54.00;23.37;;;;;;;-2.86;92.20;99903.08;3503418;82;99147;-80
2021/12/08 16:27:40;;;;;;;57.33;25.07;;;;;;;-2.87;92.43;99902.84;3512504;82;98070;-80
2021/12/08 16:32:42;;;;;;;55.97;24.50;;;;;;;-2.86;92.25;99908.46;3505699;82;99305;-80
2021/12/08 16:37:43;;;;;;;50.83;24.10;;;;;;;-2.87;92.25;99904.99;3508466;82;99190;-80
2021/12/08 16:43:04;;;;;;;51.60;22.97;;;;;;;-2.86;92.33;99929.47;3519914;81;99511;-79
2021/12/08 16:48:09;;;;;;;52.30;23.23;;;;;;;-2.83;92.10;99931.56;3519054;82;99064;-80
2021/12/08 16:53:14;;;;;;;52.62;23.18;;;;;;;-2.85;91.98;99928.36;3505248;82;99258;-80
2021/12/08 16:58:15;;;;;;;51.30;20.17;;;;;;;-2.85;91.85;99923.54;3521270;82;98683;-79
2021/12/08 17:03:19;;;;;;;53.27;24.40;;;;;;;-2.86;91.79;99930.81;3509855;82;99295;-79
2021/12/08 17:08:23;;;;;;;50.15;21.95;;;;;;;-2.88;91.85;99941.09;3505370;82;99499;-79
2021/12/08 17:13:25;;;;;;;49.53;21.87;;;;;;;-2.87;91.80;99929.76;3499891;82;99099;-80
2021/12/08 17:18:28;;;;;;;57.70;23.90;;;;;;;-2.89;91.69;99920.62;3509124;81;98952;-78
2021/12/08 17:23:28;;;;;;;53.80;24.32;;;;;;;-2.89;91.81;99917.16;3496870;81;99033;-80
2021/12/08 17:28:29;;;;;;;55.13;22.83;;;;;;;-2.90;91.89;99915.56;3483584;82;26401;-81
2021/12/08 17:33:31;;;;;;;54.23;24.80;;;;;;;-2.92;91.78;99900.25;3517792;81;99150;-78
2021/12/08 17:38:37;;;;;;;57.37;26.57;;;;;;;-2.93;91.83;99902.70;3511561;82;99034;-78
2021/12/08 17:43:39;;;;;;;57.15;25.82;;;;;;;-2.95;91.94;99901.64;3489889;82;99126;-80
2021/12/08 17:48:40;;;;;;;57.75;25.77;;;;;;;-2.94;91.78;99891.69;3521710;82;99816;-79
2021/12/08 17:53:45;;;;;;;96.00;36.33;;;;;;;-2.94;91.90;99891.69;3487478;82;99128;-79
2021/12/08 17:58:47;;;;;;;98.65;39.27;;;;;;;-2.94;91.95;99883.08;3504203;82;31361;-79
2021/12/08 18:03:51;;;;;;;84.57;34.17;;;;;;;-2.91;92.09;99886.49;3517320;82;99173;-79
2021/12/08 18:08:54;;;;;;;111.15;41.00;;;;;;;-2.99;92.12;99884.52;3522001;82;99175;-79
2021/12/08 18:13:57;;;;;;;88.20;33.70;;;;;;;-3.02;92.11;99885.11;3495880;82;99411;-80
2021/12/08 18:18:58;;;;;;;75.90;34.30;;;;;;;-3.00;92.48;99880.21;3511201;81;99580;-79
2021/12/08 18:24:00;;;;;;;63.87;27.70;;;;;;;-3.00;92.62;99871.36;3490113;81;99208;-79
2021/12/08 18:29:08;;;;;;;62.57;23.47;;;;;;;-3.03;92.46;99886.22;3493689;82;27530;-80
2021/12/08 18:34:15;;;;;;;66.03;29.07;;;;;;;-3.03;92.80;99906.94;3498172;81;99105;-80
2021/12/08 18:39:21;;;;;;;58.23;23.12;;;;;;;-3.01;92.92;99887.27;3518695;82;99614;-79
2021/12/08 18:44:25;;;;;;;;;;;;;;;-2.98;93.00;99878.04;3515816;82;99516;-80
2021/12/08 18:49:26;;;;;;;59.10;25.70;;;;;;;-2.96;93.17;99868.32;3494787;81;84856;-80
2021/12/08 18:54:29;;;;;;;56.87;24.87;;;;;;;-2.94;93.01;99875.00;3506127;82;99187;-78
2021/12/08 18:59:29;;;;;;;59.97;26.27;;;;;;;-2.98;93.16;99871.84;3503482;82;99477;-80
2021/12/08 19:04:32;;;;;;;59.20;23.07;;;;;;;-2.97;93.45;99864.82;3503053;82;98872;-79
2021/12/08 19:09:33;;;;;;;58.53;24.43;;;;;;;-2.97;93.33;99860.78;3512460;82;99290;-80
2021/12/08 19:14:34;;;;;;;60.33;24.30;;;;;;;-2.99;93.67;99858.14;3481625;82;99509;-81
2021/12/08 19:19:38;;;;;;;54.50;22.40;;;;;;;-2.97;94.13;99857.28;3509219;81;99006;-79
2021/12/08 19:24:43;;;;;;;58.87;24.00;;;;;;;-2.96;94.17;99843.53;3492326;82;99506;-81
2021/12/08 19:29:42;;;;;;;57.20;22.77;;;;;;;-2.93;94.27;99843.47;3498794;82;98998;-80
2021/12/08 19:34:42;;;;;;;64.20;28.55;;;;;;;-2.91;94.55;99852.84;3503406;81;98914;-80
2021/12/08 19:39:43;;;;;;;50.23;20.93;;;;;;;-2.93;94.71;99853.70;3480483;82;98943;-81
2021/12/08 19:44:47;;;;;;;54.23;21.80;;;;;;;-2.88;94.98;99864.37;3495891;82;99370;-80
2021/12/08 19:49:48;;;;;;;64.32;27.42;;;;;;;-2.84;95.03;99869.38;3514809;82;99031;-81
2021/12/08 19:54:50;;;;;;;54.80;23.60;;;;;;;-2.81;95.41;99873.35;3513300;82;98952;-80
2021/12/08 19:59:51;;;;;;;51.43;22.03;;;;;;;-2.74;95.47;99884.53;3511888;82;99556;-80
2021/12/08 20:04:54;;;;;;;55.53;23.47;;;;;;;-2.71;95.41;99893.33;3481394;82;99063;-80
2021/12/08 20:09:55;;;;;;;53.43;20.67;;;;;;;-2.70;95.55;99894.39;3500151;82;98934;-79
2021/12/08 20:14:58;;;;;;;53.60;22.00;;;;;;;-2.70;95.82;99907.04;3501977;82;99366;-79
2021/12/08 20:20:05;;;;;;;56.53;24.40;;;;;;;-2.67;95.86;99907.80;3511989;81;1468296;-82
2021/12/08 20:25:08;;;;;;;48.57;20.63;;;;;;;-2.65;95.96;99905.05;3506357;82;99807;-78
2021/12/08 20:30:13;;;;;;;55.23;24.30;;;;;;;-2.62;96.08;99913.08;3437142;83;99474;-79
2021/12/08 20:35:21;;;;;;;51.35;21.52;;;;;;;-2.61;96.02;99926.78;3444597;83;98583;-79
2021/12/08 20:40:25;;;;;;;54.08;22.37;;;;;;;-2.61;96.00;99923.55;3384514;85;99186;-78
2021/12/08 20:45:28;;;;;;;53.85;23.32;;;;;;;-2.63;96.21;99925.73;3502093;82;98978;-78
2021/12/08 20:50:30;;;;;;;57.45;22.07;;;;;;;-2.63;96.25;99926.30;3477419;82;99025;-79
2021/12/08 20:55:32;;;;;;;51.42;21.15;;;;;;;-2.64;96.26;99912.56;3436613;83;99047;-79
2021/12/08 21:00:48;;;;;;;53.10;22.63;;;;;;;-2.64;96.36;99908.52;3432382;83;98996;-79
2021/12/08 21:05:46;;;;;;;59.13;25.92;;;;;;;-2.63;96.51;99899.37;3511351;82;99009;-79
2021/12/08 21:10:48;;;;;;;61.93;26.50;;;;;;;-2.64;96.50;99896.41;3509448;82;27479;-80
2021/12/08 21:15:51;;;;;;;61.70;24.80;;;;;;;-2.66;96.56;99891.34;3486685;82;98942;-80
2021/12/08 21:20:52;;;;;;;57.13;22.90;;;;;;;-2.67;96.73;99876.26;3503448;82;99301;-78
2021/12/08 21:25:53;;;;;;;67.47;27.70;;;;;;;-2.62;96.67;99879.41;3513053;82;99146;-81
2021/12/08 21:30:54;;;;;;;77.17;31.87;;;;;;;-2.69;96.39;99869.61;3509539;82;99125;-81
2021/12/08 21:35:55;;;;;;;72.97;29.27;;;;;;;-2.74;96.61;99879.14;3481322;82;98943;-79
2021/12/08 21:41:01;;;;;;;72.27;30.03;;;;;;;-2.75;96.65;99873.48;3519292;82;29882;-80
2021/12/08 21:46:03;;;;;;;45.03;16.82;;;;;;;-2.73;96.70;99868.05;3509342;81;99418;-80
2021/12/08 21:51:10;;;;;;;59.23;26.60;;;;;;;-2.71;96.59;99855.09;3520107;82;98887;-79
2021/12/08 21:56:10;;;;;;;59.80;24.70;;;;;;;-2.73;96.49;99853.80;3508693;82;99598;-79
2021/12/08 22:01:12;;;;;;;60.27;26.03;;;;;;;-2.76;96.60;99852.52;3512696;82;99356;-81
2021/12/08 22:06:14;;;;;;;64.07;28.07;;;;;;;-2.73;96.50;99851.11;3489603;82;99439;-81
2021/12/08 22:11:15;;;;;;;64.97;24.00;;;;;;;-2.72;96.46;99852.16;3511344;81;46502;-80
2021/12/08 22:16:21;;;;;;;64.23;26.67;;;;;;;-2.75;96.58;99846.02;3516223;82;99214;-80
2021/12/08 22:21:21;;;;;;;59.17;25.43;;;;;;;-2.82;96.68;99833.54;3502434;82;99392;-80
2021/12/08 22:26:24;;;;;;;52.80;23.73;;;;;;;-2.85;96.70;99836.82;3518158;81;99437;-80
2021/12/08 22:31:25;;;;;;;54.60;23.43;;;;;;;-2.88;96.84;99845.52;3514345;82;99033;-81
2021/12/08 22:36:25;;;;;;;70.00;29.90;;;;;;;-2.87;97.05;99833.65;3491465;82;99400;-80
2021/12/08 22:41:26;;;;;;;57.20;23.10;;;;;;;-2.84;96.95;99840.33;3519325;80;103786;-81
2021/12/08 22:46:27;;;;;;;48.57;22.20;;;;;;;-2.86;96.77;99851.92;3506093;82;99188;-81
2021/12/08 22:51:30;;;;;;;48.80;22.07;;;;;;;-2.90;96.82;99850.39;3489271;82;98944;-81
2021/12/08 22:56:31;;;;;;;51.87;21.90;;;;;;;-2.88;96.87;99861.67;3483743;82;98971;-80
2021/12/08 23:01:33;;;;;;;54.77;21.17;;;;;;;-2.88;96.90;99846.05;3520895;82;99385;-78
2021/12/08 23:06:34;;;;;;;52.37;23.43;;;;;;;-2.92;96.90;99843.18;3516877;80;99067;-80
2021/12/08 23:11:37;;;;;;;49.83;21.30;;;;;;;-2.94;97.02;99840.00;3519950;81;99558;-80
2021/12/08 23:16:38;;;;;;;55.97;24.70;;;;;;;-2.89;97.14;99840.44;3507974;82;98725;-78
2021/12/08 23:21:40;;;;;;;53.70;22.77;;;;;;;-2.87;97.10;99840.92;3512790;81;99265;-80
2021/12/08 23:26:43;;;;;;;53.70;21.67;;;;;;;-2.86;97.29;99837.12;3500591;81;99018;-80
2021/12/08 23:31:47;;;;;;;59.13;23.97;;;;;;;-2.85;97.41;99842.20;3501592;82;99107;-80
2021/12/08 23:36:51;;;;;;;55.03;23.83;;;;;;;-2.84;97.25;99822.25;3508790;81;99153;-80
2021/12/08 23:41:54;;;;;;;55.87;24.43;;;;;;;-2.84;97.38;99818.78;3515205;81;98939;-80
2021/12/08 23:46:55;;;;;;;59.07;23.00;;;;;;;-2.83;97.54;99805.03;3512424;82;41740;-80
2021/12/08 23:51:56;;;;;;;58.23;25.37;;;;;;;-2.83;97.54;99806.38;3511749;82;98889;-79
2021/12/08 23:57:00;;;;;;;51.80;20.57;;;;;;;-2.80;97.45;99807.09;3507784;82;98835;-80
